createdAt,value
2023-02-22T00:00:05.363Z,8.3
2023-02-22T00:01:06.777Z,8.3
2023-02-22T00:02:08.386Z,8.3
2023-02-22T00:03:09.966Z,8.3
2023-02-22T00:04:11.370Z,8.3
2023-02-22T00:05:12.786Z,8.3
2023-02-22T00:06:14.225Z,8.3
2023-02-22T00:07:15.339Z,8.3
2023-02-22T00:08:16.769Z,8.3
2023-02-22T00:09:18.170Z,8.3
2023-02-22T00:10:19.303Z,8.3
2023-02-22T00:11:20.736Z,8.3
2023-02-22T00:12:21.861Z,8.2
2023-02-22T00:13:23.284Z,8.2
2023-02-22T00:14:24.688Z,8.2
2023-02-22T00:15:26.106Z,8.2
2023-02-22T00:16:27.289Z,8.2
2023-02-22T00:17:28.838Z,8.2
2023-02-22T00:18:30.270Z,8.2
2023-02-22T00:19:31.669Z,8.2
2023-02-22T00:20:32.522Z,8.2
2023-02-22T00:21:33.973Z,8.2
2023-02-22T00:22:35.361Z,8.1
2023-02-22T00:23:36.779Z,8.1
2023-02-22T00:24:38.199Z,8.1
2023-02-22T00:25:39.607Z,8.1
2023-02-22T00:26:41.033Z,8.1
2023-02-22T00:27:42.204Z,8.1
2023-02-22T00:28:43.627Z,8.1
2023-02-22T00:29:45.034Z,8.1
2023-02-22T00:30:46.452Z,8
2023-02-22T00:31:47.650Z,8.1
2023-02-22T00:32:49.378Z,8
2023-02-22T00:33:50.524Z,8
2023-02-22T00:34:51.929Z,8
2023-02-22T00:35:53.483Z,8
2023-02-22T00:36:54.640Z,8
2023-02-22T00:37:56.054Z,8
2023-02-22T00:38:57.462Z,8
2023-02-22T00:39:58.865Z,8
2023-02-22T00:41:00.280Z,8
2023-02-22T00:42:01.697Z,8
2023-02-22T00:43:03.122Z,8
2023-02-22T00:44:04.256Z,8
2023-02-22T00:45:05.661Z,8
2023-02-22T00:46:07.131Z,8
2023-02-22T00:47:08.724Z,7.9
2023-02-22T00:48:10.160Z,7.9
2023-02-22T00:49:11.582Z,7.9
2023-02-22T00:50:12.986Z,7.9
2023-02-22T00:51:14.744Z,7.9
2023-02-22T00:52:17.103Z,7.8
2023-02-22T00:53:18.485Z,7.8
2023-02-22T00:54:19.919Z,7.8
2023-02-22T00:55:21.317Z,7.8
2023-02-22T00:56:22.744Z,7.8
2023-02-22T00:57:23.921Z,7.8
2023-02-22T00:58:24.793Z,7.8
2023-02-22T00:59:25.927Z,7.7
2023-02-22T01:00:27.342Z,7.7
2023-02-22T01:01:28.775Z,7.7
2023-02-22T01:02:29.917Z,7.6
2023-02-22T01:03:31.680Z,7.6
2023-02-22T01:04:33.328Z,7.6
2023-02-22T01:05:34.870Z,7.6
2023-02-22T01:06:36.559Z,7.6
2023-02-22T01:07:37.999Z,7.5
2023-02-22T01:08:39.391Z,7.5
2023-02-22T01:09:40.801Z,7.5
2023-02-22T01:10:42.215Z,7.5
2023-02-22T01:11:43.634Z,7.5
2023-02-22T01:12:45.052Z,7.5
2023-02-22T01:15:00.647Z,7.4
2023-02-22T01:16:02.164Z,7.4
2023-02-22T01:17:03.294Z,7.4
2023-02-22T01:18:04.713Z,7.4
2023-02-22T01:19:06.263Z,7.4
2023-02-22T01:20:07.647Z,7.3
2023-02-22T01:21:09.065Z,7.3
2023-02-22T01:22:10.488Z,7.3
2023-02-22T01:23:11.924Z,7.3
2023-02-22T01:24:13.339Z,7.3
2023-02-22T01:25:14.744Z,7.3
2023-02-22T01:26:16.165Z,7.2
2023-02-22T01:27:17.575Z,7.2
2023-02-22T01:28:18.993Z,7.2
2023-02-22T01:29:20.465Z,7.2
2023-02-22T01:30:21.940Z,7.2
2023-02-22T01:31:23.545Z,7.1
2023-02-22T01:32:25.431Z,7.1
2023-02-22T01:33:26.846Z,7.1
2023-02-22T01:34:28.281Z,7.1
2023-02-22T01:35:29.677Z,7.1
2023-02-22T01:36:31.095Z,7.1
2023-02-22T01:37:32.510Z,7
2023-02-22T01:38:33.955Z,7
2023-02-22T01:39:35.362Z,7
2023-02-22T01:40:36.765Z,6.9
2023-02-22T01:41:38.184Z,6.9
2023-02-22T01:42:39.599Z,6.9
2023-02-22T01:43:41.020Z,6.9
2023-02-22T01:44:42.482Z,6.8
2023-02-22T01:45:43.913Z,6.8
2023-02-22T01:46:45.500Z,6.8
2023-02-22T01:47:46.909Z,6.8
2023-02-22T01:48:48.088Z,6.7
2023-02-22T01:49:49.528Z,6.7
2023-02-22T01:50:50.921Z,6.7
2023-02-22T01:51:52.339Z,6.6
2023-02-22T01:52:53.764Z,6.6
2023-02-22T01:53:55.200Z,6.6
2023-02-22T01:54:56.606Z,6.5
2023-02-22T01:55:58.003Z,6.5
2023-02-22T01:56:59.416Z,6.5
2023-02-22T01:58:00.832Z,6.5
2023-02-22T01:59:02.248Z,6.4
2023-02-22T02:00:03.694Z,6.4
2023-02-22T02:01:05.082Z,6.4
2023-02-22T02:02:06.497Z,6.4
2023-02-22T02:03:08.120Z,6.4
2023-02-22T02:04:09.575Z,6.4
2023-02-22T02:05:11.264Z,6.4
2023-02-22T02:06:12.827Z,6.4
2023-02-22T02:07:14.245Z,6.3
2023-02-22T02:08:15.656Z,6.3
2023-02-22T02:09:17.111Z,6.3
2023-02-22T02:10:18.541Z,6.3
2023-02-22T02:11:19.916Z,6.3
2023-02-22T02:12:21.333Z,6.3
2023-02-22T02:13:22.748Z,6.3
2023-02-22T02:14:24.233Z,6.3
2023-02-22T02:15:25.362Z,6.3
2023-02-22T02:16:26.767Z,6.3
2023-02-22T02:17:28.304Z,6.3
2023-02-22T02:18:29.724Z,6.3
2023-02-22T02:19:31.139Z,6.3
2023-02-22T02:20:32.574Z,6.3
2023-02-22T02:21:33.969Z,6.3
2023-02-22T02:22:35.387Z,6.2
2023-02-22T02:23:36.799Z,6.2
2023-02-22T02:24:38.242Z,6.2
2023-02-22T02:25:39.652Z,6.2
2023-02-22T02:26:41.113Z,6.2
2023-02-22T02:27:42.486Z,6.2
2023-02-22T02:28:43.902Z,6.2
2023-02-22T02:29:45.326Z,6.2
2023-02-22T02:30:46.747Z,6.2
2023-02-22T02:31:48.294Z,6.1
2023-02-22T02:32:50.227Z,6.1
2023-02-22T02:33:51.638Z,6.1
2023-02-22T02:34:53.064Z,6.1
2023-02-22T02:35:54.487Z,6.1
2023-02-22T02:36:55.898Z,6.1
2023-02-22T02:37:57.302Z,6.1
2023-02-22T02:38:58.741Z,6.1
2023-02-22T02:40:00.410Z,6.1
2023-02-22T02:41:02.080Z,6
2023-02-22T02:42:03.474Z,6
2023-02-22T02:43:04.890Z,6
2023-02-22T02:44:06.309Z,6
2023-02-22T02:45:07.722Z,6
2023-02-22T02:46:09.168Z,6
2023-02-22T02:47:10.597Z,6
2023-02-22T02:48:11.986Z,6
2023-02-22T02:49:13.203Z,5.9
2023-02-22T02:50:14.608Z,5.9
2023-02-22T02:51:16.362Z,5.9
2023-02-22T02:52:18.623Z,5.9
2023-02-22T02:53:20.036Z,5.9
2023-02-22T02:54:21.455Z,5.9
2023-02-22T02:55:22.889Z,5.9
2023-02-22T02:56:24.308Z,5.9
2023-02-22T02:57:25.700Z,5.9
2023-02-22T02:58:27.313Z,5.9
2023-02-22T02:59:28.731Z,5.9
2023-02-22T03:00:30.153Z,5.8
2023-02-22T03:01:31.645Z,5.8
2023-02-22T03:02:33.046Z,5.8
2023-02-22T03:03:34.466Z,5.8
2023-02-22T03:04:35.882Z,5.7
2023-02-22T03:05:37.295Z,5.7
2023-02-22T03:06:38.732Z,5.7
2023-02-22T03:07:40.150Z,5.7
2023-02-22T03:08:41.677Z,5.7
2023-02-22T03:09:43.099Z,5.6
2023-02-22T03:10:44.531Z,5.6
2023-02-22T03:11:45.945Z,5.6
2023-02-22T03:12:47.357Z,5.6
2023-02-22T03:13:48.774Z,5.6
2023-02-22T03:14:50.187Z,5.6
2023-02-22T03:15:51.607Z,5.6
2023-02-22T03:16:53.042Z,5.6
2023-02-22T03:17:54.441Z,5.5
2023-02-22T03:18:55.856Z,5.5
2023-02-22T03:19:57.307Z,5.5
2023-02-22T03:20:58.686Z,5.5
2023-02-22T03:22:00.135Z,5.5
2023-02-22T03:23:01.514Z,5.5
2023-02-22T03:24:02.935Z,5.5
2023-02-22T03:25:04.352Z,5.5
2023-02-22T03:26:05.800Z,5.4
2023-02-22T03:27:07.696Z,5.4
2023-02-22T03:28:09.066Z,5.4
2023-02-22T03:29:10.486Z,5.3
2023-02-22T03:30:11.918Z,5.3
2023-02-22T03:31:13.763Z,5.3
2023-02-22T03:32:15.787Z,5.3
2023-02-22T03:33:17.396Z,5.2
2023-02-22T03:34:18.796Z,5.2
2023-02-22T03:35:20.207Z,5.2
2023-02-22T03:36:21.628Z,5.1
2023-02-22T03:37:23.064Z,5.1
2023-02-22T03:38:24.455Z,5.1
2023-02-22T03:39:25.869Z,5.1
2023-02-22T03:40:27.285Z,5
2023-02-22T03:41:28.726Z,5
2023-02-22T03:42:30.136Z,5
2023-02-22T03:43:31.549Z,5
2023-02-22T03:44:32.952Z,5
2023-02-22T03:45:34.367Z,5
2023-02-22T03:46:35.867Z,4.9
2023-02-22T03:47:37.520Z,4.9
2023-02-22T03:48:38.920Z,4.9
2023-02-22T03:49:40.335Z,4.9
2023-02-22T03:50:41.751Z,4.8
2023-02-22T03:51:43.179Z,4.8
2023-02-22T03:52:44.601Z,4.8
2023-02-22T03:53:46.003Z,4.8
2023-02-22T03:54:47.410Z,4.8
2023-02-22T03:55:48.820Z,4.7
2023-02-22T03:56:50.265Z,4.7
2023-02-22T03:57:51.672Z,4.7
2023-02-22T03:58:53.062Z,4.7
2023-02-22T03:59:54.478Z,4.7
2023-02-22T04:00:55.896Z,4.7
2023-02-22T04:01:57.309Z,4.7
2023-02-22T04:02:58.772Z,4.6
2023-02-22T04:04:00.193Z,4.6
2023-02-22T04:05:01.714Z,4.6
2023-02-22T04:06:03.215Z,4.6
2023-02-22T04:07:04.633Z,4.6
2023-02-22T04:08:06.072Z,4.5
2023-02-22T04:09:07.461Z,4.5
2023-02-22T04:10:08.875Z,4.5
2023-02-22T04:11:10.293Z,4.5
2023-02-22T04:12:11.729Z,4.5
2023-02-22T04:13:13.131Z,4.5
2023-02-22T04:14:14.538Z,4.5
2023-02-22T04:15:15.947Z,4.5
2023-02-22T04:16:17.403Z,4.5
2023-02-22T04:17:19.073Z,4.5
2023-02-22T04:18:20.519Z,4.5
2023-02-22T04:19:21.902Z,4.4
2023-02-22T04:20:23.316Z,4.4
2023-02-22T04:21:24.731Z,4.4
2023-02-22T04:22:26.147Z,4.4
2023-02-22T04:23:27.588Z,4.4
2023-02-22T04:24:30.512Z,4.4
2023-02-22T04:25:32.089Z,4.4
2023-02-22T04:26:33.482Z,4.4
2023-02-22T04:27:34.922Z,4.4
2023-02-22T04:28:36.796Z,4.4
2023-02-22T04:29:38.166Z,4.4
2023-02-22T04:30:39.620Z,4.4
2023-02-22T04:31:41.429Z,4.4
2023-02-22T04:32:42.989Z,4.4
2023-02-22T04:33:44.426Z,4.4
2023-02-22T04:34:45.820Z,4.5
2023-02-22T04:35:47.234Z,4.5
2023-02-22T04:36:48.650Z,4.5
2023-02-22T04:37:50.062Z,4.5
2023-02-22T04:38:51.481Z,4.5
2023-02-22T04:39:52.956Z,4.5
2023-02-22T04:40:54.439Z,4.5
2023-02-22T04:41:55.838Z,4.5
2023-02-22T04:42:57.280Z,4.5
2023-02-22T04:43:59.033Z,4.5
2023-02-22T04:45:00.409Z,4.5
2023-02-22T04:46:01.836Z,4.5
2023-02-22T04:47:03.234Z,4.5
2023-02-22T04:48:04.649Z,4.5
2023-02-22T04:49:06.060Z,4.5
2023-02-22T04:50:07.492Z,4.5
2023-02-22T04:51:08.900Z,4.5
2023-02-22T04:52:10.308Z,4.5
2023-02-22T04:53:11.721Z,4.5
2023-02-22T04:54:13.139Z,4.5
2023-02-22T04:55:14.549Z,4.5
2023-02-22T04:56:16.121Z,4.5
2023-02-22T04:57:17.242Z,4.5
2023-02-22T04:58:18.685Z,4.5
2023-02-22T04:59:20.087Z,4.6
2023-02-22T05:00:21.508Z,4.6
2023-02-22T05:01:22.938Z,4.6
2023-02-22T05:02:24.370Z,4.6
2023-02-22T05:03:25.872Z,4.6
2023-02-22T05:04:27.339Z,4.6
2023-02-22T05:05:28.938Z,4.6
2023-02-22T05:06:30.331Z,4.6
2023-02-22T05:07:31.722Z,4.6
2023-02-22T05:08:33.143Z,4.6
2023-02-22T05:09:34.556Z,4.7
2023-02-22T05:10:36.002Z,4.7
2023-02-22T05:11:37.383Z,4.7
2023-02-22T05:12:38.803Z,4.7
2023-02-22T05:13:40.243Z,4.7
2023-02-22T05:14:41.634Z,4.7
2023-02-22T05:15:43.117Z,4.7
2023-02-22T05:16:44.632Z,4.7
2023-02-22T05:17:46.049Z,4.7
2023-02-22T05:18:47.459Z,4.7
2023-02-22T05:19:48.875Z,4.7
2023-02-22T05:20:50.301Z,4.7
2023-02-22T05:21:51.833Z,4.8
2023-02-22T05:22:53.246Z,4.8
2023-02-22T05:23:54.661Z,4.8
2023-02-22T05:24:56.082Z,4.8
2023-02-22T05:25:57.226Z,4.8
2023-02-22T05:26:58.631Z,4.8
2023-02-22T05:28:00.044Z,4.8
2023-02-22T05:29:01.242Z,4.8
2023-02-22T05:30:02.629Z,4.8
2023-02-22T05:31:04.119Z,4.8
2023-02-22T05:32:05.583Z,4.8
2023-02-22T05:33:07.377Z,4.8
2023-02-22T05:34:08.791Z,4.8
2023-02-22T05:35:10.205Z,4.8
2023-02-22T05:36:11.636Z,4.8
2023-02-22T05:37:13.034Z,4.8
2023-02-22T05:38:14.451Z,4.8
2023-02-22T05:39:15.898Z,4.8
2023-02-22T05:40:17.294Z,4.8
2023-02-22T05:41:18.923Z,4.8
2023-02-22T05:42:20.489Z,4.8
2023-02-22T05:43:21.902Z,4.9
2023-02-22T05:44:23.340Z,4.9
2023-02-22T05:45:24.746Z,4.9
2023-02-22T05:46:26.219Z,4.9
2023-02-22T05:47:27.802Z,4.9
2023-02-22T05:48:29.218Z,4.9
2023-02-22T05:49:30.644Z,4.9
2023-02-22T05:50:32.042Z,4.9
2023-02-22T05:51:33.468Z,4.9
2023-02-22T05:52:34.874Z,4.9
2023-02-22T05:53:36.287Z,4.9
2023-02-22T05:54:37.700Z,4.9
2023-02-22T05:55:39.118Z,4.9
2023-02-22T05:56:40.546Z,4.9
2023-02-22T05:57:41.944Z,4.9
2023-02-22T05:58:43.355Z,5
2023-02-22T05:59:44.802Z,5
2023-02-22T06:00:46.188Z,4.9
2023-02-22T06:01:47.626Z,5
2023-02-22T06:02:49.018Z,5
2023-02-22T06:03:50.431Z,5
2023-02-22T06:04:51.852Z,5
2023-02-22T06:05:53.278Z,5
2023-02-22T06:06:54.690Z,5
2023-02-22T06:07:56.090Z,5
2023-02-22T06:08:57.510Z,5
2023-02-22T06:09:59.121Z,5
2023-02-22T06:11:00.538Z,5
2023-02-22T06:12:01.973Z,5.1
2023-02-22T06:13:03.365Z,5.1
2023-02-22T06:14:04.778Z,5.1
2023-02-22T06:15:06.221Z,5.1
2023-02-22T06:16:07.874Z,5.1
2023-02-22T06:17:09.324Z,5.1
2023-02-22T06:18:10.862Z,5.1
2023-02-22T06:19:12.282Z,5.1
2023-02-22T06:20:13.692Z,5.1
2023-02-22T06:21:15.284Z,5.1
2023-02-22T06:22:17.649Z,5.1
2023-02-22T06:23:19.077Z,5.1
2023-02-22T06:24:20.509Z,5.1
2023-02-22T06:25:21.896Z,5.1
2023-02-22T06:26:23.318Z,5.1
2023-02-22T06:27:24.728Z,5.1
2023-02-22T06:28:26.141Z,5.1
2023-02-22T06:29:27.554Z,5.1
2023-02-22T06:30:29.057Z,5.1
2023-02-22T06:31:30.855Z,5.1
2023-02-22T06:32:32.357Z,5.1
2023-02-22T06:33:33.820Z,5.1
2023-02-22T06:34:35.232Z,5.1
2023-02-22T06:35:36.652Z,5.1
2023-02-22T06:36:38.073Z,5.1
2023-02-22T06:37:39.480Z,5
2023-02-22T06:38:40.890Z,5
2023-02-22T06:39:42.304Z,5
2023-02-22T06:40:43.721Z,5
2023-02-22T06:41:45.143Z,5
2023-02-22T06:42:46.550Z,5
2023-02-22T06:43:47.970Z,5
2023-02-22T06:44:51.489Z,5
2023-02-22T06:45:53.258Z,5
2023-02-22T06:46:55.106Z,5
2023-02-22T06:47:56.509Z,5
2023-02-22T06:48:57.921Z,5
2023-02-22T06:49:59.336Z,5
2023-02-22T06:51:00.780Z,5.1
2023-02-22T06:52:02.190Z,5.1
2023-02-22T06:53:03.583Z,5.1
2023-02-22T06:54:05.000Z,5.1
2023-02-22T06:55:06.415Z,5.1
2023-02-22T06:56:07.832Z,5.1
2023-02-22T06:57:09.249Z,5.1
2023-02-22T06:58:10.732Z,5.1
2023-02-22T06:59:12.149Z,5.1
2023-02-22T07:00:13.288Z,5.2
2023-02-22T07:01:14.779Z,5.2
2023-02-22T07:02:17.642Z,5.2
2023-02-22T07:03:19.060Z,5.2
2023-02-22T07:04:20.458Z,5.2
2023-02-22T07:05:21.591Z,5.2
2023-02-22T07:06:23.020Z,5.2
2023-02-22T07:07:24.457Z,5.2
2023-02-22T07:08:25.847Z,5.2
2023-02-22T07:09:27.261Z,5.2
2023-02-22T07:10:28.721Z,5.2
2023-02-22T07:11:30.336Z,5.2
2023-02-22T07:12:31.767Z,5.2
2023-02-22T07:13:33.164Z,5.2
2023-02-22T07:15:43.837Z,5.2
2023-02-22T07:16:45.284Z,5.3
2023-02-22T07:17:46.706Z,5.3
2023-02-22T07:18:47.806Z,5.3
2023-02-22T07:19:49.222Z,5.3
2023-02-22T07:20:50.650Z,5.3
2023-02-22T07:21:52.054Z,5.3
2023-02-22T07:22:53.506Z,5.3
2023-02-22T07:23:54.883Z,5.3
2023-02-22T07:24:56.295Z,5.4
2023-02-22T07:25:57.713Z,5.4
2023-02-22T07:26:58.889Z,5.4
2023-02-22T07:28:00.317Z,5.4
2023-02-22T07:29:01.720Z,5.5
2023-02-22T07:30:03.132Z,5.5
2023-02-22T07:31:04.547Z,5.5
2023-02-22T07:32:06.019Z,5.5
2023-02-22T07:33:07.438Z,5.6
2023-02-22T07:34:09.159Z,5.6
2023-02-22T07:35:10.572Z,5.6
2023-02-22T07:36:11.987Z,5.7
2023-02-22T07:37:13.398Z,5.7
2023-02-22T07:38:14.823Z,5.7
2023-02-22T07:39:16.227Z,5.8
2023-02-22T07:40:17.645Z,5.8
2023-02-22T07:41:19.312Z,5.8
2023-02-22T07:42:20.632Z,5.9
2023-02-22T07:43:22.056Z,5.9
2023-02-22T07:44:23.240Z,5.9
2023-02-22T07:45:24.681Z,6
2023-02-22T07:46:25.874Z,6
2023-02-22T07:47:27.326Z,6.1
2023-02-22T07:48:28.715Z,6.1
2023-02-22T07:49:30.162Z,6.2
2023-02-22T07:50:31.535Z,6.2
2023-02-22T07:51:32.948Z,6.2
2023-02-22T07:52:34.364Z,6.3
2023-02-22T07:53:35.791Z,6.3
2023-02-22T07:54:36.909Z,6.4
2023-02-22T07:55:38.327Z,6.4
2023-02-22T07:56:39.738Z,6.5
2023-02-22T07:57:41.170Z,6.5
2023-02-22T07:58:42.579Z,6.6
2023-02-22T07:59:43.985Z,6.6
2023-02-22T08:00:45.400Z,6.6
2023-02-22T08:01:46.818Z,6.7
2023-02-22T08:02:48.325Z,6.8
2023-02-22T08:03:50.048Z,6.8
2023-02-22T08:04:51.557Z,6.8
2023-02-22T08:05:52.972Z,6.9
2023-02-22T08:06:54.386Z,6.9
2023-02-22T08:07:55.810Z,7
2023-02-22T08:08:57.237Z,7
2023-02-22T08:09:58.630Z,7.1
2023-02-22T08:11:00.045Z,7.1
2023-02-22T08:12:01.546Z,7.1
2023-02-22T08:13:02.742Z,7.2
2023-02-22T08:14:04.237Z,7.2
2023-02-22T08:15:05.631Z,7.3
2023-02-22T08:16:07.051Z,7.3
2023-02-22T08:17:08.946Z,7.4
2023-02-22T08:18:10.576Z,7.4
2023-02-22T08:19:11.973Z,7.5
2023-02-22T08:20:13.362Z,7.5
2023-02-22T08:21:14.905Z,7.6
2023-02-22T08:22:17.386Z,7.6
2023-02-22T08:23:20.671Z,7.7
2023-02-22T08:24:22.107Z,7.7
2023-02-22T08:25:23.493Z,7.8
2023-02-22T08:26:24.910Z,7.8
2023-02-22T08:27:26.388Z,7.8
2023-02-22T08:28:27.795Z,7.9
2023-02-22T08:29:29.213Z,7.9
2023-02-22T08:30:30.787Z,7.9
2023-02-22T08:31:32.183Z,8
2023-02-22T08:32:33.803Z,8
2023-02-22T08:33:35.613Z,8
2023-02-22T08:34:37.021Z,8.1
2023-02-22T08:35:38.133Z,8.1
2023-02-22T08:36:39.556Z,8.1
2023-02-22T08:37:40.974Z,8.2
2023-02-22T08:38:42.386Z,8.2
2023-02-22T08:39:43.808Z,8.2
2023-02-22T08:40:45.209Z,8.3
2023-02-22T08:41:46.389Z,8.3
2023-02-22T08:42:47.802Z,8.4
2023-02-22T08:43:49.219Z,8.4
2023-02-22T08:44:50.662Z,8.5
2023-02-22T08:45:52.449Z,8.5
2023-02-22T08:46:58.413Z,8.6
2023-02-22T08:47:59.819Z,8.6
2023-02-22T08:49:01.041Z,8.7
2023-02-22T08:50:02.806Z,8.7
2023-02-22T08:51:04.180Z,8.7
2023-02-22T08:52:05.589Z,8.8
2023-02-22T08:53:07.013Z,8.8
2023-02-22T08:54:08.476Z,8.9
2023-02-22T08:55:09.908Z,8.9
2023-02-22T08:56:11.306Z,9
2023-02-22T08:57:12.717Z,9
2023-02-22T08:58:14.174Z,9.1
2023-02-22T08:59:16.046Z,9.1
2023-02-22T09:00:17.201Z,9.2
2023-02-22T09:01:24.856Z,9.2
2023-02-22T09:02:35.274Z,9.3
2023-02-22T09:03:36.745Z,9.3
2023-02-22T09:04:38.026Z,9.4
2023-02-22T09:05:39.465Z,9.4
2023-02-22T09:06:40.858Z,9.5
2023-02-22T09:07:42.419Z,9.5
2023-02-22T09:08:43.829Z,9.6
2023-02-22T09:09:45.268Z,9.6
2023-02-22T09:10:46.690Z,9.6
2023-02-22T09:11:48.077Z,9.7
2023-02-22T09:12:51.936Z,9.7
2023-02-22T09:13:53.343Z,9.8
2023-02-22T09:14:54.757Z,9.8
2023-02-22T09:15:56.196Z,9.9
2023-02-22T09:16:57.590Z,9.9
2023-02-22T09:17:59.006Z,10
2023-02-22T09:19:00.186Z,10
2023-02-22T09:20:01.362Z,10
2023-02-22T09:21:02.627Z,10.1
2023-02-22T09:22:04.033Z,10.1
2023-02-22T09:23:05.440Z,10.2
2023-02-22T09:24:06.854Z,10.2
2023-02-22T09:25:16.543Z,10.3
2023-02-22T09:26:18.811Z,10.3
2023-02-22T09:27:20.220Z,10.4
2023-02-22T09:28:21.630Z,10.4
2023-02-22T09:29:23.057Z,10.5
2023-02-22T09:30:24.718Z,10.5
2023-02-22T09:31:26.467Z,10.6
2023-02-22T09:32:28.119Z,10.6
2023-02-22T09:33:30.195Z,10.7
2023-02-22T09:34:31.614Z,10.7
2023-02-22T09:35:33.045Z,10.8
2023-02-22T09:36:34.456Z,10.8
2023-02-22T09:37:35.850Z,10.8
2023-02-22T09:38:37.269Z,10.9
2023-02-22T09:39:38.686Z,10.9
2023-02-22T09:40:40.203Z,11
2023-02-22T09:41:41.817Z,11
2023-02-22T09:42:43.210Z,11
2023-02-22T09:43:44.650Z,11.1
2023-02-22T09:44:46.061Z,11.1
2023-02-22T09:45:47.485Z,11.1
2023-02-22T09:46:49.029Z,11.1
2023-02-22T09:47:50.603Z,11.2
2023-02-22T09:48:52.141Z,11.2
2023-02-22T09:49:53.553Z,11.2
2023-02-22T09:50:55.003Z,11.3
2023-02-22T09:51:56.804Z,11.3
2023-02-22T09:52:58.189Z,11.3
2023-02-22T09:53:59.800Z,11.4
2023-02-22T09:55:01.216Z,11.4
2023-02-22T09:56:02.658Z,11.5
2023-02-22T09:57:04.088Z,11.5
2023-02-22T09:58:05.481Z,11.5
2023-02-22T09:59:06.885Z,11.6
2023-02-22T10:00:08.340Z,11.6
2023-02-22T10:01:09.761Z,11.7
2023-02-22T10:02:11.211Z,11.7
2023-02-22T10:03:12.592Z,11.7
2023-02-22T10:04:14.007Z,11.8
2023-02-22T10:05:15.454Z,11.8
2023-02-22T10:06:17.247Z,11.8
2023-02-22T10:07:19.774Z,11.9
2023-02-22T10:08:20.948Z,11.9
2023-02-22T10:09:22.359Z,12
2023-02-22T10:10:23.784Z,12
2023-02-22T10:11:25.201Z,12
2023-02-22T10:12:26.631Z,12.1
2023-02-22T10:13:28.026Z,12.1
2023-02-22T10:14:29.443Z,12.1
2023-02-22T10:15:30.584Z,12.2
2023-02-22T10:16:32.102Z,12.2
2023-02-22T10:17:33.565Z,12.3
2023-02-22T10:18:34.956Z,12.3
2023-02-22T10:19:36.376Z,12.3
2023-02-22T10:20:37.786Z,12.4
2023-02-22T10:21:39.339Z,12.4
2023-02-22T10:22:40.886Z,12.4
2023-02-22T10:23:42.298Z,12.5
2023-02-22T10:24:43.710Z,12.5
2023-02-22T10:25:45.302Z,12.5
2023-02-22T10:26:46.698Z,12.6
2023-02-22T10:27:48.145Z,12.6
2023-02-22T10:28:49.529Z,12.6
2023-02-22T10:29:50.959Z,12.7
2023-02-22T10:30:52.397Z,12.7
2023-02-22T10:31:54.158Z,12.7
2023-02-22T10:32:56.008Z,12.8
2023-02-22T10:33:57.400Z,12.8
2023-02-22T10:34:58.818Z,12.8
2023-02-22T10:36:00.233Z,12.9
2023-02-22T10:37:01.514Z,12.9
2023-02-22T10:38:03.002Z,12.9
2023-02-22T10:39:04.391Z,13
2023-02-22T10:40:05.807Z,13
2023-02-22T10:41:06.989Z,13
2023-02-22T10:42:08.402Z,13.1
2023-02-22T10:43:09.837Z,13.1
2023-02-22T10:44:11.242Z,13.2
2023-02-22T10:45:12.656Z,13.2
2023-02-22T10:46:14.120Z,13.2
2023-02-22T10:47:18.047Z,13.3
2023-02-22T10:48:22.560Z,13.3
2023-02-22T10:49:23.947Z,13.3
2023-02-22T10:50:25.372Z,13.4
2023-02-22T10:51:26.781Z,13.4
2023-02-22T10:52:28.242Z,13.4
2023-02-22T10:53:30.101Z,13.5
2023-02-22T10:54:31.478Z,13.5
2023-02-22T10:55:32.895Z,13.5
2023-02-22T10:56:34.448Z,13.6
2023-02-22T10:57:35.867Z,13.6
2023-02-22T10:58:37.303Z,13.6
2023-02-22T10:59:38.424Z,13.6
2023-02-22T11:00:39.845Z,13.6
2023-02-22T11:01:41.306Z,13.7
2023-02-22T11:02:42.561Z,13.7
2023-02-22T11:03:43.987Z,13.7
2023-02-22T11:04:45.443Z,13.7
2023-02-22T11:05:46.706Z,13.7
2023-02-22T11:06:48.112Z,13.7
2023-02-22T11:07:49.556Z,13.7
2023-02-22T11:08:50.976Z,13.7
2023-02-22T11:09:52.365Z,13.8
2023-02-22T11:10:53.775Z,13.8
2023-02-22T11:11:55.188Z,13.8
2023-02-22T11:12:56.903Z,13.8
2023-02-22T11:13:58.319Z,13.8
2023-02-22T11:14:59.727Z,13.9
2023-02-22T11:16:01.149Z,13.9
2023-02-22T11:17:02.561Z,13.9
2023-02-22T11:18:03.974Z,13.9
2023-02-22T11:19:05.407Z,13.9
2023-02-22T11:20:06.806Z,14
2023-02-22T11:21:08.225Z,14
2023-02-22T11:22:09.639Z,14
2023-02-22T11:23:11.075Z,14.1
2023-02-22T11:24:12.578Z,14.1
2023-02-22T11:25:13.968Z,14.1
2023-02-22T11:26:15.385Z,14.2
2023-02-22T11:27:16.794Z,14.2
2023-02-22T11:28:18.207Z,14.2
2023-02-22T11:29:19.639Z,14.3
2023-02-22T11:30:21.072Z,14.3
2023-02-22T11:31:22.726Z,14.3
2023-02-22T11:32:24.497Z,14.4
2023-02-22T11:33:26.218Z,14.4
2023-02-22T11:34:28.137Z,14.4
2023-02-22T11:35:29.519Z,14.5
2023-02-22T11:36:30.936Z,14.5
2023-02-22T11:37:32.382Z,14.6
2023-02-22T11:38:33.798Z,14.6
2023-02-22T11:39:35.371Z,14.6
2023-02-22T11:40:36.964Z,14.6
2023-02-22T11:41:38.349Z,14.7
2023-02-22T11:42:39.801Z,14.6
2023-02-22T11:43:41.219Z,14.7
2023-02-22T11:44:42.654Z,14.7
2023-02-22T11:45:49.917Z,14.7
2023-02-22T11:47:02.654Z,14.8
2023-02-22T11:48:04.067Z,14.8
2023-02-22T11:49:05.481Z,14.8
2023-02-22T11:50:06.924Z,14.8
2023-02-22T11:51:08.315Z,14.9
2023-02-22T11:52:09.778Z,14.9
2023-02-22T11:53:11.165Z,14.9
2023-02-22T11:54:12.637Z,14.9
2023-02-22T11:55:14.079Z,14.9
2023-02-22T11:56:17.306Z,14.9
2023-02-22T11:57:36.328Z,15
2023-02-22T11:58:37.448Z,15
2023-02-22T11:59:38.860Z,15
2023-02-22T12:00:40.298Z,15
2023-02-22T12:01:41.693Z,15
2023-02-22T12:02:51.761Z,15
2023-02-22T12:03:58.658Z,15
2023-02-22T12:05:00.659Z,15
2023-02-22T12:06:02.406Z,15
2023-02-22T12:07:03.807Z,15.1
2023-02-22T12:08:13.853Z,15.1
2023-02-22T12:09:21.203Z,15.1
2023-02-22T12:10:22.594Z,15.1
2023-02-22T12:11:23.756Z,15.2
2023-02-22T12:12:25.144Z,15.2
2023-02-22T12:13:26.567Z,15.2
2023-02-22T12:14:27.982Z,15.2
2023-02-22T12:15:29.405Z,15.2
2023-02-22T12:16:31.023Z,15.2
2023-02-22T12:17:32.431Z,15.3
2023-02-22T12:18:33.860Z,15.3
2023-02-22T12:19:35.266Z,15.3
2023-02-22T12:20:36.679Z,15.3
2023-02-22T12:21:38.115Z,15.4
2023-02-22T12:22:39.511Z,15.4
2023-02-22T12:23:40.926Z,15.4
2023-02-22T12:24:42.369Z,15.4
2023-02-22T12:25:43.757Z,15.4
2023-02-22T12:26:45.201Z,15.5
2023-02-22T12:27:46.608Z,15.5
2023-02-22T12:28:48.054Z,15.5
2023-02-22T12:29:49.436Z,15.5
2023-02-22T12:30:50.953Z,15.5
2023-02-22T12:31:52.242Z,15.5
2023-02-22T12:32:53.737Z,15.5
2023-02-22T12:33:55.578Z,15.5
2023-02-22T12:34:57.058Z,15.5
2023-02-22T12:35:58.510Z,15.5
2023-02-22T12:36:59.915Z,15.6
2023-02-22T12:38:01.310Z,15.6
2023-02-22T12:39:04.482Z,15.6
2023-02-22T12:40:08.805Z,15.6
2023-02-22T12:41:10.314Z,15.6
2023-02-22T12:42:11.741Z,15.6
2023-02-22T12:43:13.141Z,15.6
2023-02-22T12:44:14.561Z,15.6
2023-02-22T12:45:15.974Z,15.6
2023-02-22T12:46:17.638Z,15.6
2023-02-22T12:47:19.075Z,15.7
2023-02-22T12:48:20.460Z,15.7
2023-02-22T12:49:21.877Z,15.7
2023-02-22T12:50:23.288Z,15.7
2023-02-22T12:51:24.703Z,15.7
2023-02-22T12:52:26.125Z,15.7
2023-02-22T12:53:27.548Z,15.8
2023-02-22T12:54:28.953Z,15.8
2023-02-22T12:55:30.420Z,15.8
2023-02-22T12:56:31.822Z,15.8
2023-02-22T12:57:33.354Z,15.8
2023-02-22T12:58:34.728Z,15.7
2023-02-22T12:59:36.148Z,15.7
2023-02-22T13:00:37.575Z,15.7
2023-02-22T13:01:39.193Z,15.7
2023-02-22T13:02:40.662Z,15.7
2023-02-22T13:03:42.072Z,15.7
2023-02-22T13:04:43.545Z,15.7
2023-02-22T13:05:44.954Z,15.7
2023-02-22T13:06:46.372Z,15.7
2023-02-22T13:07:47.805Z,15.7
2023-02-22T13:08:49.203Z,15.7
2023-02-22T13:09:50.618Z,15.7
2023-02-22T13:10:52.057Z,15.6
2023-02-22T13:11:53.641Z,15.6
2023-02-22T13:12:55.073Z,15.6
2023-02-22T13:13:56.184Z,15.6
2023-02-22T13:14:57.598Z,15.6
2023-02-22T13:15:59.130Z,15.6
2023-02-22T13:17:00.831Z,15.6
2023-02-22T13:18:02.281Z,15.6
2023-02-22T13:19:03.782Z,15.6
2023-02-22T13:20:05.636Z,15.6
2023-02-22T13:21:07.211Z,15.6
2023-02-22T13:22:09.298Z,15.6
2023-02-22T13:23:10.821Z,15.6
2023-02-22T13:24:12.229Z,15.6
2023-02-22T13:25:13.685Z,15.6
2023-02-22T13:26:15.124Z,15.6
2023-02-22T13:27:16.237Z,15.6
2023-02-22T13:28:18.036Z,15.6
2023-02-22T13:29:19.768Z,15.6
2023-02-22T13:30:21.332Z,15.6
2023-02-22T13:31:22.944Z,15.6
2023-02-22T13:32:24.624Z,15.6
2023-02-22T13:33:26.383Z,15.6
2023-02-22T13:34:28.346Z,15.6
2023-02-22T13:35:32.037Z,15.6
2023-02-22T13:36:33.449Z,15.6
2023-02-22T13:37:35.824Z,15.5
2023-02-22T13:38:37.101Z,15.5
2023-02-22T13:39:38.227Z,15.5
2023-02-22T13:40:39.358Z,15.5
2023-02-22T13:41:40.529Z,15.5
2023-02-22T13:42:43.898Z,15.5
2023-02-22T13:43:45.468Z,15.5
2023-02-22T13:44:46.861Z,15.5
2023-02-22T13:45:48.008Z,15.5
2023-02-22T13:46:49.451Z,15.5
2023-02-22T13:47:51.340Z,15.5
2023-02-22T13:48:52.774Z,15.5
2023-02-22T13:49:54.172Z,15.5
2023-02-22T13:50:55.587Z,15.4
2023-02-22T13:51:56.997Z,15.4
2023-02-22T13:52:58.417Z,15.4
2023-02-22T13:53:59.860Z,15.4
2023-02-22T13:55:01.266Z,15.4
2023-02-22T13:56:02.663Z,15.4
2023-02-22T13:57:04.101Z,15.4
2023-02-22T13:58:05.626Z,15.4
2023-02-22T13:59:07.370Z,15.4
2023-02-22T14:00:08.755Z,15.4
2023-02-22T14:01:10.166Z,15.3
2023-02-22T14:02:11.582Z,15.3
2023-02-22T14:03:13.018Z,15.3
2023-02-22T14:04:14.445Z,15.3
2023-02-22T14:05:16.032Z,15.3
2023-02-22T14:06:17.821Z,15.3